createdAt,value
2023-06-14T00:01:50.968Z,100247.91
2023-06-14T00:04:19.429Z,100239.69
2023-06-14T00:06:46.680Z,100239.41
2023-06-14T00:09:14.416Z,100239.41
2023-06-14T00:11:42.797Z,100247.09
2023-06-14T00:14:10.107Z,100244.19
2023-06-14T00:16:38.350Z,100261.16
2023-06-14T00:19:06.380Z,100253.53
2023-06-14T00:21:33.806Z,100247.28
2023-06-14T00:24:01.228Z,100251.63
2023-06-14T00:26:28.463Z,100251.28
2023-06-14T00:28:56.209Z,100253.13
2023-06-14T00:31:24.161Z,100251.66
2023-06-14T00:33:51.413Z,100253.19
2023-06-14T00:36:18.787Z,100239.28
2023-06-14T00:38:46.035Z,100253.53
2023-06-14T00:41:13.250Z,100253.53
2023-06-14T00:43:43.393Z,100254.13
2023-06-14T00:46:10.718Z,100244.91
2023-06-14T00:48:40.247Z,100245.66
2023-06-14T00:51:07.888Z,100237.41
2023-06-14T00:53:37.120Z,100255.19
2023-06-14T00:56:05.038Z,100240.19
2023-06-14T00:58:33.520Z,100228.88
2023-06-14T01:01:00.904Z,100250.97
2023-06-14T01:03:29.677Z,100249.13
2023-06-14T01:06:28.103Z,100252.31
2023-06-14T01:09:42.121Z,100245.31
2023-06-14T01:12:18.522Z,100247.97
2023-06-14T01:14:47.197Z,100238.22
2023-06-14T01:17:17.965Z,100238.41
2023-06-14T01:19:46.937Z,100235.47
2023-06-14T01:22:16.099Z,100252.31
2023-06-14T01:24:46.258Z,100262.75
2023-06-14T01:27:14.642Z,100257.34
2023-06-14T01:29:47.166Z,100257.19
2023-06-14T01:32:17.288Z,100261.91
2023-06-14T01:34:44.623Z,100259.09
2023-06-14T01:37:14.386Z,100260.00
2023-06-14T01:39:43.966Z,100263.69
2023-06-14T01:42:13.096Z,100264.69
2023-06-14T01:44:44.403Z,100262.09
2023-06-14T01:47:13.237Z,100256.84
2023-06-14T01:49:41.223Z,100254.47
2023-06-14T01:52:11.297Z,100263.69
2023-06-14T01:54:43.390Z,100248.88
2023-06-14T01:57:11.811Z,100266.34
2023-06-14T01:59:39.247Z,100247.22
2023-06-14T02:02:06.451Z,100260.44
2023-06-14T02:04:33.836Z,100262.75
2023-06-14T02:07:01.212Z,100250.41
2023-06-14T02:09:28.467Z,100263.56
2023-06-14T02:11:56.004Z,100252.03
2023-06-14T02:14:24.519Z,100251.09
2023-06-14T02:16:51.881Z,100264.63
2023-06-14T02:19:21.736Z,100259.03
2023-06-14T02:21:49.687Z,100255.63
2023-06-14T02:24:17.991Z,100235.63
2023-06-14T02:26:45.344Z,100250.63
2023-06-14T02:29:17.360Z,100247.69
2023-06-14T02:31:44.569Z,100251.16
2023-06-14T02:34:13.205Z,100256.75
2023-06-14T02:36:42.943Z,100252.09
2023-06-14T02:39:12.050Z,100254.47
2023-06-14T02:41:39.667Z,100253.19
2023-06-14T02:44:08.260Z,100261.44
2023-06-14T02:46:35.827Z,100261.38
2023-06-14T02:49:03.544Z,100257.88
2023-06-14T02:51:32.279Z,100256.09
2023-06-14T02:53:59.464Z,100271.41
2023-06-14T02:56:27.464Z,100272.81
2023-06-14T02:58:55.096Z,100257.88
2023-06-14T03:01:23.048Z,100268.13
2023-06-14T03:03:51.047Z,100273.59
2023-06-14T03:06:18.494Z,100260.63
2023-06-14T03:08:50.129Z,100266.44
2023-06-14T03:11:21.934Z,100267.56
2023-06-14T03:13:49.966Z,100250.63
2023-06-14T03:16:19.775Z,100263.69
2023-06-14T03:18:47.258Z,100268.31
2023-06-14T03:21:17.143Z,100271.44
2023-06-14T03:23:46.095Z,100268.94
2023-06-14T03:26:19.157Z,100270.03
2023-06-14T03:28:50.866Z,100248.88
2023-06-14T03:31:20.569Z,100250.41
2023-06-14T03:33:49.208Z,100269.78
2023-06-14T03:36:16.519Z,100242.31
2023-06-14T03:38:44.379Z,100266.31
2023-06-14T03:41:13.226Z,100266.19
2023-06-14T03:43:40.910Z,100256.50
2023-06-14T03:46:08.688Z,100242.31
2023-06-14T03:48:36.603Z,100262.94
2023-06-14T03:51:04.120Z,100273.97
2023-06-14T03:53:32.034Z,100266.81
2023-06-14T03:56:01.359Z,100271.09
2023-06-14T03:58:37.629Z,100273.00
2023-06-14T04:01:05.453Z,100273.16
2023-06-14T04:03:33.057Z,100269.00
2023-06-14T04:06:02.239Z,100264.84
2023-06-14T04:08:29.642Z,100268.38
2023-06-14T04:10:59.072Z,100270.78
2023-06-14T04:13:26.236Z,100264.44
2023-06-14T04:15:53.918Z,100259.94
2023-06-14T04:18:27.053Z,100258.81
2023-06-14T04:20:54.836Z,100263.69
2023-06-14T04:23:23.400Z,100261.97
2023-06-14T04:25:51.099Z,100259.53
2023-06-14T04:28:19.653Z,100263.50
2023-06-14T04:30:49.823Z,100258.59
2023-06-14T04:33:19.498Z,100261.38
2023-06-14T04:35:48.931Z,100258.03
2023-06-14T04:38:19.956Z,100257.59
2023-06-14T04:40:47.771Z,100249.41
2023-06-14T04:43:19.798Z,100246.19
2023-06-14T04:45:50.211Z,100258.88
2023-06-14T04:48:20.779Z,100255.22
2023-06-14T04:50:54.170Z,100242.09
2023-06-14T04:53:24.195Z,100255.84
2023-06-14T04:55:54.652Z,100254.88
2023-06-14T04:58:22.724Z,100253.22
2023-06-14T05:00:50.348Z,100253.63
2023-06-14T05:03:19.993Z,100252.97
2023-06-14T05:05:47.975Z,100240.47
2023-06-14T05:08:15.192Z,100248.66
2023-06-14T05:10:42.432Z,100254.84
2023-06-14T05:13:09.570Z,100233.25
2023-06-14T05:15:37.256Z,100249.50
2023-06-14T05:18:04.559Z,100253.19
2023-06-14T05:20:32.173Z,100245.38
2023-06-14T05:22:59.581Z,100241.59
2023-06-14T05:25:26.925Z,100236.59
2023-06-14T05:27:54.126Z,100230.19
2023-06-14T05:30:21.449Z,100246.03
2023-06-14T05:32:48.739Z,100242.44
2023-06-14T05:35:16.587Z,100244.31
2023-06-14T05:37:43.926Z,100250.09
2023-06-14T05:40:11.573Z,100236.25
2023-06-14T05:42:38.773Z,100245.13
2023-06-14T05:45:07.373Z,100246.31
2023-06-14T05:47:34.745Z,100251.91
2023-06-14T05:50:02.017Z,100243.91
2023-06-14T05:52:32.701Z,100252.19
2023-06-14T05:54:59.956Z,100241.78
2023-06-14T05:57:27.151Z,100253.03
2023-06-14T05:59:54.297Z,100257.47
2023-06-14T06:02:21.569Z,100259.41
2023-06-14T06:04:48.794Z,100261.19
2023-06-14T06:07:16.074Z,100251.41
2023-06-14T06:09:43.384Z,100254.31
2023-06-14T06:12:11.535Z,100262.22
2023-06-14T06:14:38.834Z,100253.06
2023-06-14T06:17:06.409Z,100250.59
2023-06-14T06:19:33.734Z,100254.09
2023-06-14T06:22:00.891Z,100256.91
2023-06-14T06:24:28.174Z,100244.78
2023-06-14T06:26:55.361Z,100250.91
2023-06-14T06:29:22.743Z,100246.78
2023-06-14T06:31:49.981Z,100253.56
2023-06-14T06:34:18.182Z,100244.13
2023-06-14T06:36:46.252Z,100240.91
2023-06-14T06:39:13.748Z,100235.47
2023-06-14T06:41:41.130Z,100236.16
2023-06-14T06:44:08.857Z,100240.91
2023-06-14T06:46:36.293Z,100238.84
2023-06-14T06:49:03.545Z,100237.28
2023-06-14T06:51:30.736Z,100242.44
2023-06-14T06:53:57.910Z,100234.53
2023-06-14T06:56:25.662Z,100241.53
2023-06-14T06:58:52.928Z,100235.94
2023-06-14T07:01:21.087Z,100237.78
2023-06-14T07:03:48.864Z,100239.75
2023-06-14T07:06:19.820Z,100246.47
2023-06-14T07:08:49.529Z,100230.75
2023-06-14T07:11:16.801Z,100234.63
2023-06-14T07:13:43.923Z,100229.00
2023-06-14T07:16:11.305Z,100229.00
2023-06-14T07:18:38.781Z,100241.09
2023-06-14T07:21:06.043Z,100228.91
2023-06-14T07:23:33.213Z,100227.06
2023-06-14T07:26:00.447Z,100223.31
2023-06-14T07:28:27.684Z,100222.09
2023-06-14T07:30:54.937Z,100225.72
2023-06-14T07:33:22.279Z,100219.75
2023-06-14T07:35:50.525Z,100223.06
2023-06-14T07:38:17.708Z,100231.38
2023-06-14T07:40:44.942Z,100226.91
2023-06-14T07:43:12.216Z,100232.56
2023-06-14T07:45:40.159Z,100212.53
2023-06-14T07:48:11.152Z,100225.16
2023-06-14T07:50:38.528Z,100212.88
2023-06-14T07:53:05.835Z,100218.28
2023-06-14T07:55:45.574Z,100222.13
2023-06-14T07:58:20.064Z,100218.97
2023-06-14T08:00:48.460Z,100227.78
2023-06-14T08:03:15.834Z,100224.59
2023-06-14T08:05:43.669Z,100207.81
2023-06-14T08:08:10.929Z,100215.88
2023-06-14T08:10:38.234Z,100210.03
2023-06-14T08:13:05.485Z,100200.53
2023-06-14T08:15:32.950Z,100220.78
2023-06-14T08:18:01.763Z,100211.66
2023-06-14T08:20:29.323Z,100215.28
2023-06-14T08:22:58.125Z,100213.47
2023-06-14T08:25:25.815Z,100216.50
2023-06-14T08:27:53.055Z,100219.13
2023-06-14T08:30:20.428Z,100207.69
2023-06-14T08:32:51.528Z,100218.00
2023-06-14T08:35:21.191Z,100209.81
2023-06-14T08:37:48.465Z,100220.13
2023-06-14T08:40:23.487Z,100212.50
2023-06-14T08:42:55.370Z,100212.97
2023-06-14T08:45:26.289Z,100215.56
2023-06-14T08:47:59.665Z,100207.03
2023-06-14T08:50:32.055Z,100210.44
2023-06-14T08:53:03.900Z,100199.06
2023-06-14T08:55:37.128Z,100202.44
2023-06-14T08:58:06.394Z,100202.22
2023-06-14T09:00:34.790Z,100207.69
2023-06-14T09:03:02.521Z,100196.47
2023-06-14T09:05:30.251Z,100195.28
2023-06-14T09:08:04.092Z,100190.41
2023-06-14T09:10:39.028Z,100187.38
2023-06-14T09:13:07.795Z,100175.66
2023-06-14T09:15:36.528Z,100191.56
2023-06-14T09:18:05.559Z,100190.56
2023-06-14T09:20:33.512Z,100185.47
2023-06-14T09:23:02.150Z,100179.03
2023-06-14T09:27:59.625Z,100169.44
2023-06-14T09:30:26.867Z,100173.31
2023-06-14T09:32:54.462Z,100185.09
2023-06-14T09:35:21.945Z,100178.25
2023-06-14T09:37:49.137Z,100177.41
2023-06-14T09:40:22.058Z,100162.56
2023-06-14T09:42:49.816Z,100169.56
2023-06-14T09:45:22.845Z,100170.97
2023-06-14T09:48:05.420Z,100166.38
2023-06-14T09:50:34.260Z,100168.38
2023-06-14T09:53:08.539Z,100149.28
2023-06-14T09:55:38.453Z,100152.63
2023-06-14T09:58:09.087Z,100147.56
2023-06-14T10:00:38.803Z,100149.31
2023-06-14T10:03:21.176Z,100136.53
2023-06-14T10:05:51.423Z,100148.75
2023-06-14T10:08:26.085Z,100136.78
2023-06-14T10:10:54.610Z,100134.09
2023-06-14T10:13:22.257Z,100140.06
2023-06-14T10:16:14.212Z,100120.41
2023-06-14T10:19:21.838Z,100119.22
2023-06-14T10:22:15.915Z,100134.44
2023-06-14T10:24:44.907Z,100119.91
2023-06-14T10:27:18.472Z,100121.34
2023-06-14T10:29:54.626Z,100125.91
2023-06-14T10:32:22.750Z,100128.34
2023-06-14T10:35:01.656Z,100121.31
2023-06-14T10:37:31.775Z,100121.03
2023-06-14T10:39:59.233Z,100121.75
2023-06-14T10:42:33.358Z,100119.91
2023-06-14T10:45:01.903Z,100125.28
2023-06-14T10:47:40.724Z,100118.34
2023-06-14T10:50:09.382Z,100112.19
2023-06-14T10:52:40.197Z,100108.81
2023-06-14T10:55:20.210Z,100095.53
2023-06-14T10:57:59.898Z,100102.22
2023-06-14T11:00:30.094Z,100110.00
2023-06-14T11:03:15.857Z,100099.78
2023-06-14T11:05:59.625Z,100107.31
2023-06-14T11:08:57.688Z,100099.06
2023-06-14T11:11:30.920Z,100089.34
2023-06-14T11:13:58.197Z,100099.03
2023-06-14T11:16:28.978Z,100093.47
2023-06-14T11:18:56.750Z,100090.47
2023-06-14T11:21:26.453Z,100095.41
2023-06-14T11:23:54.455Z,100098.63
2023-06-14T11:26:32.457Z,100094.00
2023-06-14T11:29:01.288Z,100083.19
2023-06-14T11:31:30.064Z,100090.50
2023-06-14T11:33:59.295Z,100079.88
2023-06-14T11:36:33.822Z,100083.84
2023-06-14T11:39:09.947Z,100085.66
2023-06-14T11:41:42.613Z,100077.75
2023-06-14T11:44:10.601Z,100075.16
2023-06-14T11:46:37.977Z,100079.50
2023-06-14T11:49:08.108Z,100078.97
2023-06-14T11:51:36.053Z,100067.91
2023-06-14T11:54:04.600Z,100056.91
2023-06-14T11:56:35.300Z,100058.69
2023-06-14T11:59:05.039Z,100062.88
2023-06-14T12:01:33.390Z,100060.19
2023-06-14T12:04:02.076Z,100047.25
2023-06-14T12:06:34.497Z,100048.69
2023-06-14T12:09:06.056Z,100050.25
2023-06-14T12:11:35.031Z,100052.22
2023-06-14T12:14:04.025Z,100052.63
2023-06-14T12:16:37.006Z,100043.88
2023-06-14T12:19:16.051Z,100048.44
2023-06-14T12:21:45.564Z,100036.56
2023-06-14T12:24:14.415Z,100045.38
2023-06-14T12:26:42.972Z,100043.25
2023-06-14T12:29:11.510Z,100039.69
2023-06-14T12:31:39.214Z,100042.03
2023-06-14T12:34:06.565Z,100026.56
2023-06-14T12:36:33.828Z,100035.28
2023-06-14T12:39:01.393Z,100031.50
2023-06-14T12:41:29.165Z,100036.91
2023-06-14T12:43:56.632Z,100028.53
2023-06-14T12:46:23.867Z,100031.50
2023-06-14T12:48:51.250Z,100034.09
2023-06-14T12:51:18.449Z,100030.56
2023-06-14T12:53:45.719Z,100025.91
2023-06-14T12:56:12.979Z,100023.69
2023-06-14T12:58:40.166Z,100021.22
2023-06-14T13:01:07.443Z,100017.19
2023-06-14T13:03:37.874Z,100012.38
2023-06-14T13:06:05.549Z,100013.31
2023-06-14T13:08:32.818Z,100020.06
2023-06-14T13:11:00.030Z,100016.31
2023-06-14T13:13:27.570Z,100014.03
2023-06-14T13:15:54.802Z,100003.75
2023-06-14T13:18:22.262Z,100013.38
2023-06-14T13:20:49.625Z,100005.84
2023-06-14T13:23:17.332Z,100003.75
2023-06-14T13:25:45.190Z,100005.88
2023-06-14T13:28:12.582Z,99993.94
2023-06-14T13:30:39.866Z,99999.31
2023-06-14T13:33:07.184Z,99996.94
2023-06-14T13:35:34.459Z,100009.78
2023-06-14T13:38:02.384Z,99997.53
2023-06-14T13:40:29.843Z,100009.47
2023-06-14T13:42:57.056Z,100003.81
2023-06-14T13:45:24.444Z,100001.72
2023-06-14T13:47:51.834Z,99991.63
2023-06-14T13:50:19.400Z,100004.72
2023-06-14T13:52:46.679Z,99992.13
2023-06-14T13:55:13.882Z,99985.53
2023-06-14T13:57:41.176Z,99987.41
2023-06-14T14:00:09.769Z,99989.44
2023-06-14T14:02:44.170Z,99986.41
2023-06-14T14:05:11.621Z,99991.53
2023-06-14T14:07:39.425Z,99980.75
2023-06-14T14:10:11.338Z,99994.09
2023-06-14T14:12:42.830Z,99996.59
2023-06-14T14:15:14.371Z,99997.69
2023-06-14T14:17:42.635Z,99990.66
2023-06-14T14:20:10.723Z,99988.44
2023-06-14T14:22:39.311Z,99987.47
2023-06-14T14:25:06.640Z,99984.50
2023-06-14T14:27:33.823Z,99983.88
2023-06-14T14:30:01.200Z,99987.22
2023-06-14T14:32:29.819Z,99992.59
2023-06-14T14:34:57.046Z,99985.84
2023-06-14T14:37:24.222Z,99996.50
2023-06-14T14:39:51.360Z,100000.41
2023-06-14T14:42:19.742Z,100003.19
2023-06-14T14:44:47.099Z,99996.88
2023-06-14T14:47:14.442Z,99988.53
2023-06-14T14:49:43.044Z,99998.50
2023-06-14T14:52:22.943Z,99971.84
2023-06-14T14:54:52.021Z,99985.91
2023-06-14T14:57:19.226Z,99995.72
2023-06-14T14:59:46.758Z,99987.56
2023-06-14T15:02:13.983Z,99988.81
2023-06-14T15:04:41.496Z,99995.47
2023-06-14T15:07:09.269Z,99989.91
2023-06-14T15:09:36.618Z,99995.47
2023-06-14T15:12:04.047Z,99992.97
2023-06-14T15:14:31.444Z,99990.34
2023-06-14T15:16:59.845Z,99993.22
2023-06-14T15:19:27.243Z,99989.09
2023-06-14T15:21:54.604Z,99992.00
2023-06-14T15:24:34.013Z,99999.94
2023-06-14T15:27:08.976Z,99998.28
2023-06-14T15:29:36.475Z,99997.91
2023-06-14T15:32:03.853Z,99979.38
2023-06-14T15:34:31.058Z,99991.50
2023-06-14T15:36:58.449Z,99993.06
2023-06-14T15:39:26.213Z,99984.38
2023-06-14T15:41:53.589Z,99999.63
2023-06-14T15:44:21.047Z,99992.56
2023-06-14T15:46:49.493Z,99999.09
2023-06-14T15:49:19.291Z,99999.09
2023-06-14T15:51:47.208Z,99995.81
2023-06-14T15:54:14.825Z,99998.72
2023-06-14T15:56:42.062Z,100000.97
2023-06-14T15:59:09.266Z,99990.66
2023-06-14T16:01:37.672Z,99995.97
2023-06-14T16:04:06.002Z,99995.03
2023-06-14T16:06:37.272Z,99997.50
2023-06-14T16:09:05.448Z,99974.72
2023-06-14T16:11:32.671Z,100003.97
2023-06-14T16:13:59.915Z,99999.34
2023-06-14T16:16:27.308Z,100003.69
2023-06-14T16:18:55.583Z,99997.66
2023-06-14T16:21:22.905Z,99999.97
2023-06-14T16:23:50.297Z,100006.03
2023-06-14T16:26:17.572Z,100006.34
2023-06-14T16:28:45.177Z,100006.84
2023-06-14T16:31:15.935Z,100017.00
2023-06-14T16:33:43.141Z,100021.31
2023-06-14T16:38:37.449Z,100025.22
2023-06-14T16:41:04.790Z,100028.97
2023-06-14T16:43:32.093Z,100031.25
2023-06-14T16:45:59.290Z,100024.06
2023-06-14T16:48:26.482Z,100027.13
2023-06-14T16:50:53.759Z,100036.38
2023-06-14T16:53:39.717Z,100035.13
2023-06-14T16:56:07.524Z,100040.28
2023-06-14T16:58:34.712Z,100041.94
2023-06-14T17:01:01.951Z,100038.75
2023-06-14T17:03:29.249Z,100041.78
2023-06-14T17:05:58.115Z,100042.34
2023-06-14T17:08:26.395Z,100047.00
2023-06-14T17:10:54.955Z,100046.66
2023-06-14T17:13:22.711Z,100044.44
2023-06-14T17:15:50.038Z,100043.44
2023-06-14T17:18:17.603Z,100049.47
2023-06-14T17:20:45.007Z,100052.22
2023-06-14T17:23:12.213Z,100051.75
2023-06-14T17:25:39.379Z,100048.03
2023-06-14T17:28:06.523Z,100036.38
2023-06-14T17:30:33.710Z,100037.78
2023-06-14T17:33:01.137Z,100041.63
2023-06-14T17:35:28.471Z,100044.31
2023-06-14T17:37:55.723Z,100044.69
2023-06-14T17:40:22.966Z,100038.75
2023-06-14T17:42:50.160Z,100046.78
2023-06-14T17:45:17.403Z,100046.53
2023-06-14T17:47:44.629Z,100053.34
2023-06-14T17:50:11.878Z,100058.22
2023-06-14T17:52:39.212Z,100054.72
2023-06-14T17:55:07.067Z,100047.91
2023-06-14T17:57:34.283Z,100058.22
2023-06-14T18:00:01.544Z,100056.81
2023-06-14T18:02:33.497Z,100062.41
2023-06-14T18:05:01.016Z,100062.31
2023-06-14T18:07:29.318Z,100066.84
2023-06-14T18:09:56.503Z,100066.00
2023-06-14T18:12:23.710Z,100072.47
2023-06-14T18:14:50.981Z,100072.00
2023-06-14T18:17:18.320Z,100075.16
2023-06-14T18:19:45.693Z,100071.41
2023-06-14T18:22:13.022Z,100075.72
2023-06-14T18:24:40.283Z,100076.28
2023-06-14T18:27:10.143Z,100081.31
2023-06-14T18:29:37.363Z,100078.94
2023-06-14T18:32:05.034Z,100081.25
2023-06-14T18:34:32.311Z,100080.97
2023-06-14T18:36:59.494Z,100078.13
2023-06-14T18:39:26.788Z,100066.50
2023-06-14T18:41:54.196Z,100080.78
2023-06-14T18:44:21.429Z,100077.28
2023-06-14T18:46:48.692Z,100074.31
2023-06-14T18:49:16.035Z,100068.94
2023-06-14T18:51:43.780Z,100078.44
2023-06-14T18:54:11.553Z,100085.19
2023-06-14T18:56:39.094Z,100089.16
2023-06-14T18:59:06.297Z,100084.34
2023-06-14T19:01:33.622Z,100074.41
2023-06-14T19:04:01.044Z,100078.22
2023-06-14T19:06:28.457Z,100070.16
2023-06-14T19:08:55.911Z,100064.88
2023-06-14T19:11:23.138Z,100064.00
2023-06-14T19:13:50.544Z,100081.22
2023-06-14T19:16:17.705Z,100068.69
2023-06-14T19:18:45.069Z,100070.56
2023-06-14T19:21:12.378Z,100075.09
2023-06-14T19:23:39.731Z,100074.06
2023-06-14T19:26:07.882Z,100081.97
2023-06-14T19:28:36.588Z,100055.56
2023-06-14T19:31:03.740Z,100077.16
2023-06-14T19:33:30.932Z,100081.91
2023-06-14T19:35:58.099Z,100073.75
2023-06-14T19:38:25.477Z,100085.69
2023-06-14T19:40:52.758Z,100081.50
2023-06-14T19:43:19.968Z,100087.28
2023-06-14T19:45:47.381Z,100089.03
2023-06-14T19:48:20.674Z,100089.03
2023-06-14T19:50:51.475Z,100086.84
2023-06-14T19:53:19.379Z,100090.44
2023-06-14T19:55:46.607Z,100089.91
2023-06-14T19:58:13.854Z,100085.38
2023-06-14T20:00:41.174Z,100089.84
2023-06-14T20:03:08.514Z,100090.75
2023-06-14T20:05:36.570Z,100076.03
2023-06-14T20:08:04.308Z,100104.16
2023-06-14T20:10:31.684Z,100102.34
2023-06-14T20:12:59.006Z,100102.03
2023-06-14T20:15:27.246Z,100098.16
2023-06-14T20:17:54.419Z,100104.41
2023-06-14T20:20:21.602Z,100097.09
2023-06-14T20:22:48.753Z,100100.19
2023-06-14T20:25:16.379Z,100103.31
2023-06-14T20:27:43.867Z,100112.09
2023-06-14T20:30:11.692Z,100108.63
2023-06-14T20:32:38.980Z,100112.34
2023-06-14T20:35:06.573Z,100113.19
2023-06-14T20:37:33.824Z,100107.44
2023-06-14T20:40:06.997Z,100095.13
2023-06-14T20:42:34.805Z,100111.16
2023-06-14T20:45:03.778Z,100105.06
2023-06-14T20:47:34.520Z,100118.66
2023-06-14T20:50:01.837Z,100108.84
2023-06-14T20:52:30.943Z,100107.13
2023-06-14T20:54:59.035Z,100105.94
2023-06-14T20:57:26.746Z,100107.59
2023-06-14T20:59:53.974Z,100108.88
2023-06-14T21:02:21.420Z,100109.69
2023-06-14T21:04:48.773Z,100103.94
2023-06-14T21:07:16.398Z,100106.00
2023-06-14T21:09:43.894Z,100101.91
2023-06-14T21:12:13.058Z,100106.25
2023-06-14T21:14:40.941Z,100103.59
2023-06-14T21:17:09.863Z,100102.38
2023-06-14T21:19:38.743Z,100087.22
2023-06-14T21:22:06.450Z,100106.53
2023-06-14T21:24:33.849Z,100108.59
2023-06-14T21:27:01.332Z,100107.81
2023-06-14T21:29:28.995Z,100104.50
2023-06-14T21:31:56.893Z,100103.34
2023-06-14T21:34:24.312Z,100108.94
2023-06-14T21:36:53.698Z,100102.53
2023-06-14T21:39:24.789Z,100100.06
2023-06-14T21:41:53.467Z,100097.59
2023-06-14T21:44:20.637Z,100090.41
2023-06-14T21:46:47.874Z,100089.16
2023-06-14T21:49:15.062Z,100090.59
2023-06-14T21:51:42.430Z,100088.59
2023-06-14T21:54:11.119Z,100084.88
2023-06-14T21:56:38.527Z,100086.56
2023-06-14T21:59:05.687Z,100080.00
2023-06-14T22:01:32.865Z,100078.97
2023-06-14T22:04:00.152Z,100084.72
2023-06-14T22:06:27.426Z,100092.38
2023-06-14T22:08:55.013Z,100090.56
2023-06-14T22:11:22.332Z,100088.31
2023-06-14T22:13:50.565Z,100092.78
2023-06-14T22:16:17.810Z,100097.28
2023-06-14T22:18:47.057Z,100091.72
2023-06-14T22:21:20.636Z,100099.00
2023-06-14T22:23:48.086Z,100101.88
2023-06-14T22:26:20.591Z,100093.22
2023-06-14T22:28:54.468Z,100098.16
2023-06-14T22:31:21.810Z,100085.38
2023-06-14T22:33:52.336Z,100096.91
2023-06-14T22:36:19.582Z,100095.06
2023-06-14T22:38:47.067Z,100096.50
2023-06-14T22:41:14.804Z,100081.31
2023-06-14T22:43:44.475Z,100091.41
2023-06-14T22:46:20.842Z,100101.06
2023-06-14T22:48:51.978Z,100093.66
2023-06-14T22:51:21.345Z,100090.81
2023-06-14T22:53:52.638Z,100088.91
2023-06-14T22:56:21.687Z,100080.50
2023-06-14T22:58:49.602Z,100092.41
2023-06-14T23:01:19.117Z,100093.84
2023-06-14T23:03:49.184Z,100086.44
2023-06-14T23:06:26.144Z,100085.84
2023-06-14T23:08:57.637Z,100081.31
2023-06-14T23:11:25.153Z,100094.91
2023-06-14T23:13:54.568Z,100087.06
2023-06-14T23:16:22.331Z,100082.13
2023-06-14T23:18:49.860Z,100098.78
2023-06-14T23:21:18.374Z,100087.69
2023-06-14T23:23:51.302Z,100095.47
2023-06-14T23:26:22.118Z,100093.22
2023-06-14T23:28:54.926Z,100089.75
2023-06-14T23:31:24.063Z,100092.56
2023-06-14T23:33:53.936Z,100088.25
2023-06-14T23:36:21.739Z,100091.34
2023-06-14T23:38:49.689Z,100087.84
2023-06-14T23:41:17.593Z,100072.66
2023-06-14T23:43:46.486Z,100094.84
2023-06-14T23:46:16.887Z,100072.25
2023-06-14T23:48:44.679Z,100090.94
2023-06-14T23:51:11.873Z,100087.00
2023-06-14T23:53:39.122Z,100078.75
2023-06-14T23:56:10.767Z,100084.91
2023-06-14T23:58:38.886Z,100076.25
